sensor_id;sensor_type;location;lat;lon;timestamp;P1;durP1;ratioP1;P2;durP2;ratioP2
3689;SDS011;1861;50.240;8.596;2023-01-29T00:02:01;4.03;;;2.73;;
3689;SDS011;1861;50.240;8.596;2023-01-29T00:04:31;3.57;;;3.00;;
3689;SDS011;1861;50.240;8.596;2023-01-29T00:06:59;3.70;;;2.90;;
3689;SDS011;1861;50.240;8.596;2023-01-29T00:09:27;3.50;;;2.83;;
3689;SDS011;1861;50.240;8.596;2023-01-29T00:11:57;2.93;;;2.63;;
3689;SDS011;1861;50.240;8.596;2023-01-29T00:14:25;4.00;;;2.70;;
3689;SDS011;1861;50.240;8.596;2023-01-29T00:16:55;4.10;;;2.80;;
3689;SDS011;1861;50.240;8.596;2023-01-29T00:19:23;3.17;;;2.87;;
3689;SDS011;1861;50.240;8.596;2023-01-29T00:21:51;2.67;;;2.43;;
3689;SDS011;1861;50.240;8.596;2023-01-29T00:24:19;3.03;;;2.73;;
3689;SDS011;1861;50.240;8.596;2023-01-29T00:26:48;4.03;;;2.63;;
3689;SDS011;1861;50.240;8.596;2023-01-29T00:29:16;4.20;;;2.80;;
3689;SDS011;1861;50.240;8.596;2023-01-29T00:31:44;2.93;;;2.73;;
3689;SDS011;1861;50.240;8.596;2023-01-29T00:34:16;4.60;;;3.17;;
3689;SDS011;1861;50.240;8.596;2023-01-29T00:36:44;5.53;;;3.47;;
3689;SDS011;1861;50.240;8.596;2023-01-29T00:39:12;2.77;;;2.57;;
3689;SDS011;1861;50.240;8.596;2023-01-29T00:41:40;5.30;;;2.60;;
3689;SDS011;1861;50.240;8.596;2023-01-29T00:44:25;4.13;;;2.60;;
3689;SDS011;1861;50.240;8.596;2023-01-29T00:47:11;4.33;;;2.67;;
3689;SDS011;1861;50.240;8.596;2023-01-29T00:49:54;2.80;;;2.60;;
3689;SDS011;1861;50.240;8.596;2023-01-29T00:52:23;4.13;;;2.30;;
3689;SDS011;1861;50.240;8.596;2023-01-29T00:54:52;4.77;;;2.93;;
3689;SDS011;1861;50.240;8.596;2023-01-29T00:57:21;3.87;;;2.87;;
3689;SDS011;1861;50.240;8.596;2023-01-29T00:59:49;7.37;;;4.53;;
3689;SDS011;1861;50.240;8.596;2023-01-29T01:02:17;4.70;;;2.90;;
3689;SDS011;1861;50.240;8.596;2023-01-29T01:05:05;2.37;;;2.17;;
3689;SDS011;1861;50.240;8.596;2023-01-29T01:07:35;4.57;;;2.90;;
3689;SDS011;1861;50.240;8.596;2023-01-29T01:10:04;2.73;;;2.40;;
3689;SDS011;1861;50.240;8.596;2023-01-29T01:12:48;3.20;;;2.70;;
3689;SDS011;1861;50.240;8.596;2023-01-29T01:15:19;4.10;;;2.70;;
3689;SDS011;1861;50.240;8.596;2023-01-29T01:17:50;2.70;;;2.50;;
3689;SDS011;1861;50.240;8.596;2023-01-29T01:20:20;2.97;;;2.67;;
3689;SDS011;1861;50.240;8.596;2023-01-29T01:22:50;4.27;;;2.57;;
3689;SDS011;1861;50.240;8.596;2023-01-29T01:25:19;5.30;;;2.70;;
3689;SDS011;1861;50.240;8.596;2023-01-29T01:27:50;3.73;;;3.43;;
3689;SDS011;1861;50.240;8.596;2023-01-29T01:30:19;2.90;;;2.50;;
3689;SDS011;1861;50.240;8.596;2023-01-29T01:32:47;3.60;;;3.30;;
3689;SDS011;1861;50.240;8.596;2023-01-29T01:35:16;2.70;;;2.50;;
3689;SDS011;1861;50.240;8.596;2023-01-29T01:37:45;3.30;;;2.73;;
3689;SDS011;1861;50.240;8.596;2023-01-29T01:40:14;3.73;;;3.00;;
3689;SDS011;1861;50.240;8.596;2023-01-29T01:42:46;2.97;;;2.67;;
3689;SDS011;1861;50.240;8.596;2023-01-29T01:45:18;4.03;;;2.80;;
3689;SDS011;1861;50.240;8.596;2023-01-29T01:47:51;4.87;;;2.60;;
3689;SDS011;1861;50.240;8.596;2023-01-29T01:50:25;4.77;;;2.90;;
3689;SDS011;1861;50.240;8.596;2023-01-29T01:52:58;3.03;;;2.57;;
3689;SDS011;1861;50.240;8.596;2023-01-29T01:55:31;2.63;;;2.43;;
3689;SDS011;1861;50.240;8.596;2023-01-29T01:58:03;3.10;;;2.80;;
3689;SDS011;1861;50.240;8.596;2023-01-29T02:00:36;3.07;;;2.60;;
3689;SDS011;1861;50.240;8.596;2023-01-29T02:03:05;2.83;;;2.63;;
3689;SDS011;1861;50.240;8.596;2023-01-29T02:05:53;2.80;;;2.50;;
3689;SDS011;1861;50.240;8.596;2023-01-29T02:08:44;3.10;;;2.43;;
3689;SDS011;1861;50.240;8.596;2023-01-29T02:11:35;3.13;;;2.83;;
3689;SDS011;1861;50.240;8.596;2023-01-29T02:14:04;3.40;;;3.00;;
3689;SDS011;1861;50.240;8.596;2023-01-29T02:16:33;3.10;;;2.73;;
3689;SDS011;1861;50.240;8.596;2023-01-29T02:19:02;2.60;;;2.40;;
3689;SDS011;1861;50.240;8.596;2023-01-29T02:21:40;3.00;;;2.60;;
3689;SDS011;1861;50.240;8.596;2023-01-29T02:24:33;3.30;;;2.70;;
3689;SDS011;1861;50.240;8.596;2023-01-29T02:27:26;2.50;;;2.30;;
3689;SDS011;1861;50.240;8.596;2023-01-29T02:30:07;3.10;;;2.80;;
3689;SDS011;1861;50.240;8.596;2023-01-29T02:32:41;3.57;;;3.00;;
3689;SDS011;1861;50.240;8.596;2023-01-29T02:35:25;10.20;;;4.40;;
3689;SDS011;1861;50.240;8.596;2023-01-29T02:38:00;5.20;;;3.30;;
3689;SDS011;1861;50.240;8.596;2023-01-29T02:40:37;2.93;;;2.70;;
3689;SDS011;1861;50.240;8.596;2023-01-29T02:43:14;3.10;;;2.63;;
3689;SDS011;1861;50.240;8.596;2023-01-29T02:45:52;3.73;;;2.63;;
3689;SDS011;1861;50.240;8.596;2023-01-29T02:48:28;2.50;;;2.30;;
3689;SDS011;1861;50.240;8.596;2023-01-29T02:51:07;3.13;;;2.80;;
3689;SDS011;1861;50.240;8.596;2023-01-29T02:53:41;3.73;;;2.90;;
3689;SDS011;1861;50.240;8.596;2023-01-29T02:56:20;3.77;;;3.10;;
3689;SDS011;1861;50.240;8.596;2023-01-29T02:58:56;4.30;;;2.90;;
3689;SDS011;1861;50.240;8.596;2023-01-29T03:01:29;5.80;;;3.10;;
3689;SDS011;1861;50.240;8.596;2023-01-29T03:04:03;2.70;;;2.50;;
3689;SDS011;1861;50.240;8.596;2023-01-29T03:06:38;4.83;;;3.10;;
3689;SDS011;1861;50.240;8.596;2023-01-29T03:09:10;4.07;;;3.03;;
3689;SDS011;1861;50.240;8.596;2023-01-29T03:11:44;3.20;;;2.57;;
3689;SDS011;1861;50.240;8.596;2023-01-29T03:14:22;3.13;;;2.83;;
3689;SDS011;1861;50.240;8.596;2023-01-29T03:17:18;4.73;;;2.27;;
3689;SDS011;1861;50.240;8.596;2023-01-29T03:19:49;3.67;;;2.60;;
3689;SDS011;1861;50.240;8.596;2023-01-29T03:22:20;3.53;;;3.10;;
3689;SDS011;1861;50.240;8.596;2023-01-29T03:24:50;3.77;;;3.20;;
3689;SDS011;1861;50.240;8.596;2023-01-29T03:27:43;3.50;;;3.10;;
3689;SDS011;1861;50.240;8.596;2023-01-29T03:30:37;3.27;;;2.83;;
3689;SDS011;1861;50.240;8.596;2023-01-29T03:33:50;3.73;;;3.07;;
3689;SDS011;1861;50.240;8.596;2023-01-29T03:36:22;3.20;;;2.90;;
3689;SDS011;1861;50.240;8.596;2023-01-29T03:39:03;3.53;;;3.23;;
3689;SDS011;1861;50.240;8.596;2023-01-29T03:41:33;6.53;;;3.10;;
3689;SDS011;1861;50.240;8.596;2023-01-29T03:44:07;3.00;;;2.70;;
3689;SDS011;1861;50.240;8.596;2023-01-29T03:46:41;4.83;;;3.10;;
3689;SDS011;1861;50.240;8.596;2023-01-29T03:49:19;5.50;;;3.97;;
3689;SDS011;1861;50.240;8.596;2023-01-29T03:51:54;5.67;;;3.60;;
3689;SDS011;1861;50.240;8.596;2023-01-29T03:54:28;3.10;;;2.83;;
3689;SDS011;1861;50.240;8.596;2023-01-29T03:57:08;3.40;;;3.10;;
3689;SDS011;1861;50.240;8.596;2023-01-29T03:59:46;3.87;;;3.10;;
3689;SDS011;1861;50.240;8.596;2023-01-29T04:02:41;3.53;;;3.13;;
3689;SDS011;1861;50.240;8.596;2023-01-29T04:05:16;5.33;;;3.70;;
3689;SDS011;1861;50.240;8.596;2023-01-29T04:08:00;4.17;;;3.77;;
3689;SDS011;1861;50.240;8.596;2023-01-29T04:10:34;5.63;;;3.40;;
3689;SDS011;1861;50.240;8.596;2023-01-29T04:13:08;4.80;;;3.77;;
3689;SDS011;1861;50.240;8.596;2023-01-29T04:15:42;4.07;;;3.67;;
3689;SDS011;1861;50.240;8.596;2023-01-29T04:18:13;5.77;;;3.40;;
3689;SDS011;1861;50.240;8.596;2023-01-29T04:21:04;5.50;;;3.77;;
3689;SDS011;1861;50.240;8.596;2023-01-29T04:23:34;5.37;;;3.20;;
3689;SDS011;1861;50.240;8.596;2023-01-29T04:26:08;4.93;;;3.67;;
3689;SDS011;1861;50.240;8.596;2023-01-29T04:28:53;3.97;;;3.57;;
3689;SDS011;1861;50.240;8.596;2023-01-29T04:31:33;3.93;;;3.57;;
3689;SDS011;1861;50.240;8.596;2023-01-29T04:34:10;4.23;;;3.60;;
3689;SDS011;1861;50.240;8.596;2023-01-29T04:36:49;4.53;;;3.30;;
3689;SDS011;1861;50.240;8.596;2023-01-29T04:39:28;3.30;;;3.00;;
3689;SDS011;1861;50.240;8.596;2023-01-29T04:42:04;3.30;;;3.00;;
3689;SDS011;1861;50.240;8.596;2023-01-29T04:44:37;3.03;;;2.73;;
3689;SDS011;1861;50.240;8.596;2023-01-29T04:47:13;4.40;;;3.30;;
3689;SDS011;1861;50.240;8.596;2023-01-29T04:49:49;3.40;;;3.07;;
3689;SDS011;1861;50.240;8.596;2023-01-29T04:52:29;3.90;;;2.80;;
3689;SDS011;1861;50.240;8.596;2023-01-29T04:55:05;3.27;;;2.50;;
3689;SDS011;1861;50.240;8.596;2023-01-29T04:57:41;5.03;;;2.80;;
3689;SDS011;1861;50.240;8.596;2023-01-29T05:00:15;4.20;;;2.83;;
3689;SDS011;1861;50.240;8.596;2023-01-29T05:02:46;5.73;;;3.47;;
3689;SDS011;1861;50.240;8.596;2023-01-29T05:05:16;4.90;;;2.93;;
3689;SDS011;1861;50.240;8.596;2023-01-29T05:07:47;4.47;;;3.20;;
3689;SDS011;1861;50.240;8.596;2023-01-29T05:10:16;4.10;;;3.33;;
3689;SDS011;1861;50.240;8.596;2023-01-29T05:12:47;6.80;;;3.90;;
3689;SDS011;1861;50.240;8.596;2023-01-29T05:15:22;3.40;;;3.10;;
3689;SDS011;1861;50.240;8.596;2023-01-29T05:17:53;4.13;;;3.63;;
3689;SDS011;1861;50.240;8.596;2023-01-29T05:20:27;3.30;;;3.00;;
3689;SDS011;1861;50.240;8.596;2023-01-29T05:22:59;3.70;;;3.30;;
3689;SDS011;1861;50.240;8.596;2023-01-29T05:25:28;5.40;;;3.43;;
3689;SDS011;1861;50.240;8.596;2023-01-29T05:27:58;4.67;;;3.30;;
3689;SDS011;1861;50.240;8.596;2023-01-29T05:30:32;4.40;;;3.37;;
3689;SDS011;1861;50.240;8.596;2023-01-29T05:33:03;5.00;;;3.47;;
3689;SDS011;1861;50.240;8.596;2023-01-29T05:35:32;5.50;;;3.50;;
3689;SDS011;1861;50.240;8.596;2023-01-29T05:38:01;3.67;;;3.13;;
3689;SDS011;1861;50.240;8.596;2023-01-29T05:40:29;4.57;;;2.80;;
3689;SDS011;1861;50.240;8.596;2023-01-29T05:42:58;9.23;;;4.00;;
3689;SDS011;1861;50.240;8.596;2023-01-29T05:45:26;3.23;;;2.90;;
3689;SDS011;1861;50.240;8.596;2023-01-29T05:47:55;5.00;;;2.73;;
3689;SDS011;1861;50.240;8.596;2023-01-29T05:50:23;2.90;;;2.70;;
3689;SDS011;1861;50.240;8.596;2023-01-29T05:52:55;4.97;;;3.00;;
3689;SDS011;1861;50.240;8.596;2023-01-29T05:55:24;5.70;;;3.27;;
3689;SDS011;1861;50.240;8.596;2023-01-29T05:57:53;7.57;;;4.30;;
3689;SDS011;1861;50.240;8.596;2023-01-29T06:00:21;4.30;;;3.37;;
3689;SDS011;1861;50.240;8.596;2023-01-29T06:02:49;5.37;;;3.73;;
3689;SDS011;1861;50.240;8.596;2023-01-29T06:05:17;5.07;;;3.90;;
3689;SDS011;1861;50.240;8.596;2023-01-29T06:07:45;5.60;;;4.30;;
3689;SDS011;1861;50.240;8.596;2023-01-29T06:10:13;6.27;;;4.33;;
3689;SDS011;1861;50.240;8.596;2023-01-29T06:12:45;6.30;;;3.90;;
3689;SDS011;1861;50.240;8.596;2023-01-29T06:15:13;4.10;;;3.70;;
3689;SDS011;1861;50.240;8.596;2023-01-29T06:17:42;6.10;;;4.03;;
3689;SDS011;1861;50.240;8.596;2023-01-29T06:20:10;6.30;;;4.37;;
3689;SDS011;1861;50.240;8.596;2023-01-29T06:22:40;5.27;;;4.30;;
3689;SDS011;1861;50.240;8.596;2023-01-29T06:25:08;5.13;;;4.63;;
3689;SDS011;1861;50.240;8.596;2023-01-29T06:27:36;8.57;;;4.50;;
3689;SDS011;1861;50.240;8.596;2023-01-29T06:30:07;7.73;;;4.90;;
3689;SDS011;1861;50.240;8.596;2023-01-29T06:32:35;6.93;;;4.50;;
3689;SDS011;1861;50.240;8.596;2023-01-29T06:35:04;6.93;;;4.67;;
3689;SDS011;1861;50.240;8.596;2023-01-29T06:37:33;8.57;;;4.47;;
3689;SDS011;1861;50.240;8.596;2023-01-29T06:40:01;6.00;;;4.00;;
3689;SDS011;1861;50.240;8.596;2023-01-29T06:42:29;4.73;;;3.30;;
3689;SDS011;1861;50.240;8.596;2023-01-29T06:44:57;4.90;;;4.10;;
3689;SDS011;1861;50.240;8.596;2023-01-29T06:47:26;4.30;;;3.90;;
3689;SDS011;1861;50.240;8.596;2023-01-29T06:49:54;7.10;;;4.03;;
3689;SDS011;1861;50.240;8.596;2023-01-29T06:52:22;7.20;;;4.30;;
3689;SDS011;1861;50.240;8.596;2023-01-29T06:54:54;4.23;;;3.87;;
3689;SDS011;1861;50.240;8.596;2023-01-29T06:57:22;6.10;;;4.10;;
3689;SDS011;1861;50.240;8.596;2023-01-29T06:59:50;5.17;;;4.33;;
3689;SDS011;1861;50.240;8.596;2023-01-29T07:02:18;7.50;;;4.57;;
3689;SDS011;1861;50.240;8.596;2023-01-29T07:04:48;5.40;;;4.50;;
3689;SDS011;1861;50.240;8.596;2023-01-29T07:07:16;5.77;;;4.53;;
3689;SDS011;1861;50.240;8.596;2023-01-29T07:09:44;5.50;;;4.37;;
3689;SDS011;1861;50.240;8.596;2023-01-29T07:12:12;6.27;;;4.73;;
3689;SDS011;1861;50.240;8.596;2023-01-29T07:14:40;7.00;;;5.47;;
3689;SDS011;1861;50.240;8.596;2023-01-29T07:17:08;6.43;;;5.63;;
3689;SDS011;1861;50.240;8.596;2023-01-29T07:19:36;8.70;;;5.70;;
3689;SDS011;1861;50.240;8.596;2023-01-29T07:22:05;9.60;;;6.33;;
3689;SDS011;1861;50.240;8.596;2023-01-29T07:24:33;11.10;;;7.13;;
3689;SDS011;1861;50.240;8.596;2023-01-29T07:27:01;9.47;;;5.73;;
3689;SDS011;1861;50.240;8.596;2023-01-29T07:29:30;9.00;;;5.70;;
3689;SDS011;1861;50.240;8.596;2023-01-29T07:31:58;9.90;;;6.53;;
3689;SDS011;1861;50.240;8.596;2023-01-29T07:34:26;8.50;;;5.33;;
3689;SDS011;1861;50.240;8.596;2023-01-29T07:36:54;10.30;;;5.40;;
3689;SDS011;1861;50.240;8.596;2023-01-29T07:39:24;7.60;;;5.50;;
3689;SDS011;1861;50.240;8.596;2023-01-29T07:41:52;6.57;;;5.20;;
3689;SDS011;1861;50.240;8.596;2023-01-29T07:44:21;9.20;;;5.70;;
3689;SDS011;1861;50.240;8.596;2023-01-29T07:46:49;5.60;;;4.47;;
3689;SDS011;1861;50.240;8.596;2023-01-29T07:49:17;6.70;;;4.70;;
3689;SDS011;1861;50.240;8.596;2023-01-29T07:51:45;6.60;;;4.67;;
3689;SDS011;1861;50.240;8.596;2023-01-29T07:54:13;5.53;;;4.27;;
3689;SDS011;1861;50.240;8.596;2023-01-29T07:56:43;36.23;;;13.77;;
3689;SDS011;1861;50.240;8.596;2023-01-29T07:59:11;16.57;;;7.77;;
3689;SDS011;1861;50.240;8.596;2023-01-29T08:01:39;6.37;;;4.40;;
3689;SDS011;1861;50.240;8.596;2023-01-29T08:04:07;6.73;;;5.17;;
3689;SDS011;1861;50.240;8.596;2023-01-29T08:06:35;6.67;;;5.00;;
3689;SDS011;1861;50.240;8.596;2023-01-29T08:09:03;10.30;;;4.37;;
3689;SDS011;1861;50.240;8.596;2023-01-29T08:11:31;6.93;;;5.40;;
3689;SDS011;1861;50.240;8.596;2023-01-29T08:14:01;6.07;;;5.27;;
3689;SDS011;1861;50.240;8.596;2023-01-29T08:16:29;6.27;;;4.83;;
3689;SDS011;1861;50.240;8.596;2023-01-29T08:18:57;10.87;;;5.27;;
3689;SDS011;1861;50.240;8.596;2023-01-29T08:21:25;9.07;;;6.10;;
3689;SDS011;1861;50.240;8.596;2023-01-29T08:23:53;10.53;;;5.63;;
3689;SDS011;1861;50.240;8.596;2023-01-29T08:26:21;7.00;;;5.60;;
3689;SDS011;1861;50.240;8.596;2023-01-29T08:28:51;8.17;;;6.67;;
3689;SDS011;1861;50.240;8.596;2023-01-29T08:31:21;9.50;;;5.80;;
3689;SDS011;1861;50.240;8.596;2023-01-29T08:33:49;6.80;;;5.03;;
3689;SDS011;1861;50.240;8.596;2023-01-29T08:36:20;9.27;;;5.67;;
3689;SDS011;1861;50.240;8.596;2023-01-29T08:38:49;10.70;;;6.13;;
3689;SDS011;1861;50.240;8.596;2023-01-29T08:41:17;8.87;;;6.10;;
3689;SDS011;1861;50.240;8.596;2023-01-29T08:43:45;11.00;;;6.80;;
3689;SDS011;1861;50.240;8.596;2023-01-29T08:46:13;9.90;;;5.83;;
3689;SDS011;1861;50.240;8.596;2023-01-29T08:48:43;12.80;;;6.63;;
3689;SDS011;1861;50.240;8.596;2023-01-29T08:51:11;11.63;;;6.00;;
3689;SDS011;1861;50.240;8.596;2023-01-29T08:53:39;11.67;;;6.50;;
3689;SDS011;1861;50.240;8.596;2023-01-29T08:56:07;8.70;;;5.87;;
3689;SDS011;1861;50.240;8.596;2023-01-29T08:58:35;9.17;;;5.83;;
3689;SDS011;1861;50.240;8.596;2023-01-29T09:01:07;9.10;;;6.40;;
3689;SDS011;1861;50.240;8.596;2023-01-29T09:03:36;8.07;;;5.47;;
3689;SDS011;1861;50.240;8.596;2023-01-29T09:06:09;8.83;;;6.17;;
3689;SDS011;1861;50.240;8.596;2023-01-29T09:08:38;8.57;;;5.67;;
3689;SDS011;1861;50.240;8.596;2023-01-29T09:11:06;8.03;;;6.27;;
3689;SDS011;1861;50.240;8.596;2023-01-29T09:13:34;9.43;;;6.00;;
3689;SDS011;1861;50.240;8.596;2023-01-29T09:16:03;13.70;;;6.20;;
3689;SDS011;1861;50.240;8.596;2023-01-29T09:18:32;8.00;;;6.00;;
3689;SDS011;1861;50.240;8.596;2023-01-29T09:21:00;9.47;;;6.63;;
3689;SDS011;1861;50.240;8.596;2023-01-29T09:23:29;9.03;;;6.53;;
3689;SDS011;1861;50.240;8.596;2023-01-29T09:25:58;16.00;;;7.73;;
3689;SDS011;1861;50.240;8.596;2023-01-29T09:28:26;13.00;;;7.60;;
3689;SDS011;1861;50.240;8.596;2023-01-29T09:30:54;11.03;;;7.60;;
3689;SDS011;1861;50.240;8.596;2023-01-29T09:33:22;8.83;;;6.13;;
3689;SDS011;1861;50.240;8.596;2023-01-29T09:35:51;13.90;;;7.80;;
3689;SDS011;1861;50.240;8.596;2023-01-29T09:38:19;10.40;;;7.43;;
3689;SDS011;1861;50.240;8.596;2023-01-29T09:40:51;12.63;;;6.87;;
3689;SDS011;1861;50.240;8.596;2023-01-29T09:43:26;10.80;;;7.50;;
3689;SDS011;1861;50.240;8.596;2023-01-29T09:46:05;12.47;;;7.77;;
3689;SDS011;1861;50.240;8.596;2023-01-29T09:48:40;11.97;;;8.30;;
3689;SDS011;1861;50.240;8.596;2023-01-29T09:51:11;13.90;;;6.90;;
3689;SDS011;1861;50.240;8.596;2023-01-29T09:53:47;12.27;;;7.20;;
3689;SDS011;1861;50.240;8.596;2023-01-29T09:56:25;10.87;;;7.63;;
3689;SDS011;1861;50.240;8.596;2023-01-29T09:58:55;12.90;;;8.23;;
3689;SDS011;1861;50.240;8.596;2023-01-29T10:01:29;15.10;;;7.60;;
3689;SDS011;1861;50.240;8.596;2023-01-29T10:06:59;10.93;;;7.53;;
3689;SDS011;1861;50.240;8.596;2023-01-29T10:09:43;9.17;;;7.17;;
3689;SDS011;1861;50.240;8.596;2023-01-29T10:12:28;13.13;;;6.87;;
3689;SDS011;1861;50.240;8.596;2023-01-29T10:15:10;12.20;;;8.70;;
3689;SDS011;1861;50.240;8.596;2023-01-29T10:17:50;11.77;;;7.90;;
3689;SDS011;1861;50.240;8.596;2023-01-29T10:20:30;10.90;;;7.47;;
3689;SDS011;1861;50.240;8.596;2023-01-29T10:23:08;9.07;;;6.40;;
3689;SDS011;1861;50.240;8.596;2023-01-29T10:25:45;11.03;;;7.40;;
3689;SDS011;1861;50.240;8.596;2023-01-29T10:28:16;11.67;;;7.07;;
3689;SDS011;1861;50.240;8.596;2023-01-29T10:30:47;14.07;;;7.40;;
3689;SDS011;1861;50.240;8.596;2023-01-29T10:33:18;9.90;;;7.00;;
3689;SDS011;1861;50.240;8.596;2023-01-29T10:35:51;13.50;;;7.80;;
3689;SDS011;1861;50.240;8.596;2023-01-29T10:38:28;10.80;;;7.63;;
3689;SDS011;1861;50.240;8.596;2023-01-29T10:41:13;9.93;;;7.13;;
3689;SDS011;1861;50.240;8.596;2023-01-29T10:43:53;12.60;;;7.97;;
3689;SDS011;1861;50.240;8.596;2023-01-29T10:46:32;10.40;;;7.23;;
3689;SDS011;1861;50.240;8.596;2023-01-29T10:49:17;11.70;;;7.73;;
3689;SDS011;1861;50.240;8.596;2023-01-29T10:52:04;7.83;;;6.13;;
3689;SDS011;1861;50.240;8.596;2023-01-29T10:54:46;12.40;;;8.30;;
3689;SDS011;1861;50.240;8.596;2023-01-29T10:57:29;9.40;;;6.60;;
3689;SDS011;1861;50.240;8.596;2023-01-29T11:02:46;11.40;;;7.50;;
3689;SDS011;1861;50.240;8.596;2023-01-29T11:05:22;12.80;;;7.37;;
3689;SDS011;1861;50.240;8.596;2023-01-29T11:07:57;10.83;;;7.03;;
3689;SDS011;1861;50.240;8.596;2023-01-29T11:10:31;10.80;;;7.10;;
3689;SDS011;1861;50.240;8.596;2023-01-29T11:13:04;11.63;;;8.18;;
3689;SDS011;1861;50.240;8.596;2023-01-29T11:15:34;13.30;;;7.37;;
3689;SDS011;1861;50.240;8.596;2023-01-29T11:18:06;12.40;;;7.83;;
3689;SDS011;1861;50.240;8.596;2023-01-29T11:20:39;14.40;;;8.90;;
3689;SDS011;1861;50.240;8.596;2023-01-29T11:23:20;10.90;;;7.80;;
3689;SDS011;1861;50.240;8.596;2023-01-29T11:25:52;11.47;;;7.30;;
3689;SDS011;1861;50.240;8.596;2023-01-29T11:28:34;10.47;;;7.10;;
3689;SDS011;1861;50.240;8.596;2023-01-29T11:31:15;17.63;;;7.40;;
3689;SDS011;1861;50.240;8.596;2023-01-29T11:33:45;13.30;;;7.83;;
3689;SDS011;1861;50.240;8.596;2023-01-29T11:36:21;11.07;;;7.60;;
3689;SDS011;1861;50.240;8.596;2023-01-29T11:39:08;13.90;;;8.47;;
3689;SDS011;1861;50.240;8.596;2023-01-29T11:41:41;11.20;;;7.80;;
3689;SDS011;1861;50.240;8.596;2023-01-29T11:44:17;14.20;;;6.60;;
3689;SDS011;1861;50.240;8.596;2023-01-29T11:46:47;12.63;;;7.80;;
3689;SDS011;1861;50.240;8.596;2023-01-29T11:49:20;13.90;;;8.53;;
3689;SDS011;1861;50.240;8.596;2023-01-29T11:51:53;14.40;;;8.07;;
3689;SDS011;1861;50.240;8.596;2023-01-29T11:54:24;14.50;;;8.00;;
3689;SDS011;1861;50.240;8.596;2023-01-29T11:56:57;13.00;;;7.90;;
3689;SDS011;1861;50.240;8.596;2023-01-29T11:59:28;13.00;;;8.20;;
3689;SDS011;1861;50.240;8.596;2023-01-29T12:02:09;12.80;;;7.47;;
3689;SDS011;1861;50.240;8.596;2023-01-29T12:04:48;13.87;;;8.43;;
3689;SDS011;1861;50.240;8.596;2023-01-29T12:07:17;13.20;;;7.60;;
3689;SDS011;1861;50.240;8.596;2023-01-29T12:09:51;13.67;;;9.00;;
3689;SDS011;1861;50.240;8.596;2023-01-29T12:12:28;13.20;;;8.13;;
3689;SDS011;1861;50.240;8.596;2023-01-29T12:15:14;11.80;;;7.20;;
3689;SDS011;1861;50.240;8.596;2023-01-29T12:17:49;14.87;;;8.47;;
3689;SDS011;1861;50.240;8.596;2023-01-29T12:20:24;15.90;;;8.83;;
3689;SDS011;1861;50.240;8.596;2023-01-29T12:22:58;18.87;;;9.23;;
3689;SDS011;1861;50.240;8.596;2023-01-29T12:25:37;13.70;;;7.40;;
3689;SDS011;1861;50.240;8.596;2023-01-29T12:28:14;12.83;;;9.50;;
3689;SDS011;1861;50.240;8.596;2023-01-29T12:30:50;14.47;;;8.60;;
3689;SDS011;1861;50.240;8.596;2023-01-29T12:33:28;14.13;;;7.50;;
3689;SDS011;1861;50.240;8.596;2023-01-29T12:36:07;12.37;;;7.23;;
3689;SDS011;1861;50.240;8.596;2023-01-29T12:38:39;11.13;;;7.50;;
3689;SDS011;1861;50.240;8.596;2023-01-29T12:41:14;15.23;;;7.00;;
3689;SDS011;1861;50.240;8.596;2023-01-29T12:44:01;10.40;;;7.27;;
3689;SDS011;1861;50.240;8.596;2023-01-29T12:46:33;10.00;;;6.50;;
3689;SDS011;1861;50.240;8.596;2023-01-29T12:49:10;9.87;;;6.53;;
3689;SDS011;1861;50.240;8.596;2023-01-29T12:51:44;12.33;;;7.57;;
3689;SDS011;1861;50.240;8.596;2023-01-29T12:54:20;14.23;;;5.93;;
3689;SDS011;1861;50.240;8.596;2023-01-29T12:56:54;10.50;;;6.20;;
3689;SDS011;1861;50.240;8.596;2023-01-29T12:59:27;8.97;;;6.07;;
3689;SDS011;1861;50.240;8.596;2023-01-29T13:02:04;7.43;;;5.67;;
3689;SDS011;1861;50.240;8.596;2023-01-29T13:04:47;8.20;;;6.03;;
3689;SDS011;1861;50.240;8.596;2023-01-29T13:07:22;6.57;;;5.33;;
3689;SDS011;1861;50.240;8.596;2023-01-29T13:09:55;10.77;;;6.30;;
3689;SDS011;1861;50.240;8.596;2023-01-29T13:12:29;10.20;;;6.13;;
3689;SDS011;1861;50.240;8.596;2023-01-29T13:14:58;8.70;;;6.20;;
3689;SDS011;1861;50.240;8.596;2023-01-29T13:17:31;7.83;;;5.73;;
3689;SDS011;1861;50.240;8.596;2023-01-29T13:20:07;11.60;;;6.07;;
3689;SDS011;1861;50.240;8.596;2023-01-29T13:22:40;8.13;;;5.70;;
3689;SDS011;1861;50.240;8.596;2023-01-29T13:25:11;6.13;;;5.10;;
3689;SDS011;1861;50.240;8.596;2023-01-29T13:27:42;5.80;;;5.20;;
3689;SDS011;1861;50.240;8.596;2023-01-29T13:30:25;8.80;;;6.10;;
3689;SDS011;1861;50.240;8.596;2023-01-29T13:32:55;7.33;;;5.57;;
3689;SDS011;1861;50.240;8.596;2023-01-29T13:35:37;8.60;;;5.60;;
3689;SDS011;1861;50.240;8.596;2023-01-29T13:38:14;8.03;;;6.17;;
3689;SDS011;1861;50.240;8.596;2023-01-29T13:40:50;8.97;;;5.80;;
3689;SDS011;1861;50.240;8.596;2023-01-29T13:43:21;8.67;;;6.50;;
3689;SDS011;1861;50.240;8.596;2023-01-29T13:45:50;7.87;;;5.37;;
3689;SDS011;1861;50.240;8.596;2023-01-29T13:48:20;9.40;;;6.37;;
3689;SDS011;1861;50.240;8.596;2023-01-29T13:50:54;9.93;;;5.90;;
3689;SDS011;1861;50.240;8.596;2023-01-29T13:53:24;8.47;;;5.57;;
3689;SDS011;1861;50.240;8.596;2023-01-29T13:55:54;10.97;;;6.27;;
3689;SDS011;1861;50.240;8.596;2023-01-29T14:04:30;10.50;;;6.00;;
3689;SDS011;1861;50.240;8.596;2023-01-29T14:07:01;8.70;;;6.20;;
3689;SDS011;1861;50.240;8.596;2023-01-29T14:10:07;8.30;;;6.27;;
3689;SDS011;1861;50.240;8.596;2023-01-29T14:12:45;7.40;;;5.23;;
3689;SDS011;1861;50.240;8.596;2023-01-29T14:15:25;15.60;;;6.47;;
3689;SDS011;1861;50.240;8.596;2023-01-29T14:20:54;7.10;;;5.90;;
3689;SDS011;1861;50.240;8.596;2023-01-29T14:23:29;8.13;;;5.80;;
3689;SDS011;1861;50.240;8.596;2023-01-29T14:26:04;7.93;;;5.93;;
3689;SDS011;1861;50.240;8.596;2023-01-29T14:28:50;13.97;;;6.10;;
3689;SDS011;1861;50.240;8.596;2023-01-29T14:31:27;13.07;;;6.40;;
3689;SDS011;1861;50.240;8.596;2023-01-29T14:33:59;8.83;;;5.83;;
3689;SDS011;1861;50.240;8.596;2023-01-29T14:36:28;10.00;;;5.80;;
3689;SDS011;1861;50.240;8.596;2023-01-29T14:39:05;7.90;;;6.33;;
3689;SDS011;1861;50.240;8.596;2023-01-29T14:41:35;7.03;;;5.40;;
3689;SDS011;1861;50.240;8.596;2023-01-29T14:47:15;14.20;;;5.83;;
3689;SDS011;1861;50.240;8.596;2023-01-29T14:49:48;9.40;;;5.80;;
3689;SDS011;1861;50.240;8.596;2023-01-29T14:52:17;8.53;;;6.40;;
3689;SDS011;1861;50.240;8.596;2023-01-29T14:54:49;9.50;;;6.40;;
3689;SDS011;1861;50.240;8.596;2023-01-29T14:57:20;9.23;;;6.20;;
3689;SDS011;1861;50.240;8.596;2023-01-29T14:59:52;7.83;;;5.90;;
3689;SDS011;1861;50.240;8.596;2023-01-29T15:02:24;8.40;;;6.13;;
3689;SDS011;1861;50.240;8.596;2023-01-29T15:04:59;8.73;;;6.00;;
3689;SDS011;1861;50.240;8.596;2023-01-29T15:07:31;8.73;;;6.37;;
3689;SDS011;1861;50.240;8.596;2023-01-29T15:10:04;10.20;;;5.77;;
3689;SDS011;1861;50.240;8.596;2023-01-29T15:12:51;6.50;;;5.30;;
3689;SDS011;1861;50.240;8.596;2023-01-29T15:15:24;9.77;;;5.73;;
3689;SDS011;1861;50.240;8.596;2023-01-29T15:18:02;6.77;;;5.53;;
3689;SDS011;1861;50.240;8.596;2023-01-29T15:20:34;8.73;;;6.60;;
3689;SDS011;1861;50.240;8.596;2023-01-29T15:23:03;12.70;;;6.67;;
3689;SDS011;1861;50.240;8.596;2023-01-29T15:25:52;10.13;;;6.30;;
3689;SDS011;1861;50.240;8.596;2023-01-29T15:28:24;11.77;;;7.37;;
3689;SDS011;1861;50.240;8.596;2023-01-29T15:30:56;8.00;;;5.23;;
3689;SDS011;1861;50.240;8.596;2023-01-29T15:33:26;9.37;;;6.47;;
3689;SDS011;1861;50.240;8.596;2023-01-29T15:35:55;10.00;;;6.30;;
3689;SDS011;1861;50.240;8.596;2023-01-29T15:38:33;10.03;;;6.00;;
3689;SDS011;1861;50.240;8.596;2023-01-29T15:41:02;9.03;;;5.77;;
3689;SDS011;1861;50.240;8.596;2023-01-29T15:43:44;8.70;;;6.20;;
3689;SDS011;1861;50.240;8.596;2023-01-29T15:46:17;6.87;;;5.97;;
3689;SDS011;1861;50.240;8.596;2023-01-29T15:48:51;10.87;;;6.23;;
3689;SDS011;1861;50.240;8.596;2023-01-29T15:51:23;6.30;;;5.47;;
3689;SDS011;1861;50.240;8.596;2023-01-29T15:53:54;7.40;;;6.00;;
3689;SDS011;1861;50.240;8.596;2023-01-29T15:56:24;16.20;;;6.87;;
3689;SDS011;1861;50.240;8.596;2023-01-29T15:58:57;9.57;;;6.00;;
3689;SDS011;1861;50.240;8.596;2023-01-29T16:01:34;10.60;;;6.10;;
3689;SDS011;1861;50.240;8.596;2023-01-29T16:04:02;9.87;;;6.27;;
3689;SDS011;1861;50.240;8.596;2023-01-29T16:06:33;8.77;;;5.83;;
3689;SDS011;1861;50.240;8.596;2023-01-29T16:09:04;9.20;;;6.90;;